createdAt,value
2023-02-24T00:02:00.373Z,23.53
2023-02-24T00:04:29.673Z,23.47
2023-02-24T00:06:56.979Z,22.67
2023-02-24T00:09:26.829Z,22.10
2023-02-24T00:11:57.280Z,24.97
2023-02-24T00:14:27.279Z,24.90
2023-02-24T00:16:54.826Z,32.17
2023-02-24T00:19:24.049Z,42.70
2023-02-24T00:21:52.002Z,35.97
2023-02-24T00:24:19.182Z,36.77
2023-02-24T00:26:46.259Z,36.27
2023-02-24T00:29:16.409Z,30.93
2023-02-24T00:31:43.959Z,27.37
2023-02-24T00:34:12.866Z,26.27
2023-02-24T00:36:40.719Z,25.77
2023-02-24T00:39:09.734Z,25.07
2023-02-24T00:41:40.280Z,25.17
2023-02-24T00:44:09.852Z,24.83
2023-02-24T00:46:45.056Z,23.90
2023-02-24T00:49:19.735Z,24.10
2023-02-24T00:51:49.125Z,27.47
2023-02-24T00:54:17.185Z,26.67
2023-02-24T00:56:45.938Z,30.10
2023-02-24T00:59:14.965Z,28.50
2023-02-24T01:01:45.199Z,29.00
2023-02-24T01:04:13.540Z,26.97
2023-02-24T01:06:49.538Z,26.70
2023-02-24T01:09:20.157Z,26.63
2023-02-24T01:12:22.125Z,28.20
2023-02-24T01:14:51.651Z,26.17
2023-02-24T01:17:19.670Z,26.57
2023-02-24T01:19:49.220Z,27.93
2023-02-24T01:22:20.612Z,30.87
2023-02-24T01:24:48.668Z,28.73
2023-02-24T01:27:18.948Z,29.37
2023-02-24T01:29:49.451Z,29.83
2023-02-24T01:32:21.710Z,29.17
2023-02-24T01:34:52.140Z,30.57
2023-02-24T01:37:19.666Z,28.70
2023-02-24T01:39:47.501Z,30.73
2023-02-24T01:42:20.509Z,27.17
2023-02-24T01:44:47.753Z,29.57
2023-02-24T01:47:18.541Z,28.13
2023-02-24T01:49:47.681Z,26.83
2023-02-24T01:52:30.625Z,26.50
2023-02-24T01:55:13.452Z,25.27
2023-02-24T01:57:41.456Z,28.13
2023-02-24T02:00:11.857Z,26.33
2023-02-24T02:02:42.431Z,29.57
2023-02-24T02:05:10.385Z,27.07
2023-02-24T02:07:39.400Z,28.17
2023-02-24T02:10:09.373Z,28.43
2023-02-24T02:12:38.625Z,28.43
2023-02-24T02:15:06.831Z,26.50
2023-02-24T02:17:58.565Z,32.73
2023-02-24T02:20:53.845Z,28.20
2023-02-24T02:23:45.853Z,27.43
2023-02-24T02:26:58.468Z,28.07
2023-02-24T02:29:43.168Z,28.07
2023-02-24T02:32:40.842Z,26.13
2023-02-24T02:35:19.234Z,27.17
2023-02-24T02:37:46.454Z,27.17
2023-02-24T02:40:28.334Z,29.30
2023-02-24T02:43:03.555Z,26.53
2023-02-24T02:45:35.040Z,27.10
2023-02-24T02:48:36.297Z,27.67
2023-02-24T02:51:17.551Z,26.53
2023-02-24T02:54:01.950Z,29.10
2023-02-24T02:56:52.917Z,29.57
2023-02-24T02:59:25.144Z,28.93
2023-02-24T03:01:55.770Z,29.33
2023-02-24T03:04:25.322Z,27.50
2023-02-24T03:07:02.922Z,30.93
2023-02-24T03:09:35.115Z,29.53
2023-02-24T03:12:16.213Z,27.73
2023-02-24T03:14:52.929Z,29.00
2023-02-24T03:17:25.071Z,29.90
2023-02-24T03:20:12.488Z,29.43
2023-02-24T03:23:05.766Z,29.27
2023-02-24T03:25:44.872Z,27.57
2023-02-24T03:28:18.886Z,29.23
2023-02-24T03:30:54.723Z,29.93
2023-02-24T03:33:35.943Z,30.97
2023-02-24T03:36:03.059Z,28.80
2023-02-24T03:38:33.141Z,30.57
2023-02-24T03:41:00.763Z,31.07
2023-02-24T03:43:31.698Z,31.30
2023-02-24T03:46:00.811Z,31.50
2023-02-24T03:48:28.806Z,30.17
2023-02-24T03:50:56.779Z,30.77
2023-02-24T03:53:44.341Z,31.43
2023-02-24T03:56:24.537Z,29.50
2023-02-24T03:59:19.055Z,29.73
2023-02-24T04:02:03.159Z,31.53
2023-02-24T04:04:54.313Z,32.53
2023-02-24T04:07:23.914Z,30.73
2023-02-24T04:10:05.533Z,30.10
2023-02-24T04:12:43.079Z,30.37
2023-02-24T04:15:40.167Z,30.37
2023-02-24T04:18:15.404Z,30.30
2023-02-24T04:20:43.865Z,30.10
2023-02-24T04:23:18.938Z,29.87
2023-02-24T04:25:49.422Z,29.60
2023-02-24T04:28:19.096Z,31.47
2023-02-24T04:30:49.676Z,30.23
2023-02-24T04:33:17.380Z,28.07
2023-02-24T04:35:50.590Z,29.63
2023-02-24T04:38:18.274Z,30.03
2023-02-24T04:40:45.752Z,29.30
2023-02-24T04:43:13.150Z,29.27
2023-02-24T04:45:40.449Z,29.00
2023-02-24T04:48:12.826Z,30.33
2023-02-24T04:50:43.494Z,29.50
2023-02-24T04:53:11.192Z,31.47
2023-02-24T04:55:49.081Z,30.00
2023-02-24T04:58:28.064Z,32.03
2023-02-24T05:00:56.093Z,31.33
2023-02-24T05:03:28.225Z,31.13
2023-02-24T05:05:58.284Z,30.97
2023-02-24T05:08:25.955Z,27.50
2023-02-24T05:10:53.648Z,29.40
2023-02-24T05:13:28.164Z,30.97
2023-02-24T05:15:56.975Z,30.10
2023-02-24T05:18:24.806Z,30.13
2023-02-24T05:21:13.518Z,29.30
2023-02-24T05:23:46.007Z,28.80
2023-02-24T05:26:18.920Z,32.73
2023-02-24T05:28:52.313Z,29.87
2023-02-24T05:31:28.288Z,31.60
2023-02-24T05:34:02.596Z,30.93
2023-02-24T05:36:34.460Z,30.73
2023-02-24T05:39:07.925Z,32.90
2023-02-24T05:41:38.229Z,30.87
2023-02-24T05:44:10.959Z,30.87
2023-02-24T05:46:44.640Z,31.57
2023-02-24T05:49:23.685Z,30.63
2023-02-24T05:51:55.156Z,29.03
2023-02-24T05:54:26.235Z,30.53
2023-02-24T05:56:53.106Z,30.93
2023-02-24T05:59:21.734Z,28.63
2023-02-24T06:01:53.301Z,30.83
2023-02-24T06:04:21.154Z,29.50
2023-02-24T06:06:54.975Z,29.03
2023-02-24T06:09:23.478Z,28.10
2023-02-24T06:11:51.386Z,28.43
2023-02-24T06:14:18.806Z,29.13
2023-02-24T06:16:46.224Z,28.37
2023-02-24T06:19:13.943Z,27.40
2023-02-24T06:21:42.176Z,27.90
2023-02-24T06:24:14.691Z,27.67
2023-02-24T06:26:45.856Z,27.23
2023-02-24T06:29:18.280Z,26.43
2023-02-24T06:31:45.887Z,27.17
2023-02-24T06:34:18.593Z,25.97
2023-02-24T06:36:47.149Z,26.10
2023-02-24T06:39:14.755Z,26.03
2023-02-24T06:41:42.733Z,26.23
2023-02-24T06:44:10.440Z,26.20
2023-02-24T06:46:37.961Z,26.37
2023-02-24T06:49:05.229Z,26.40
2023-02-24T06:51:33.408Z,26.37
2023-02-24T06:54:02.886Z,25.33
2023-02-24T06:56:32.363Z,25.33
2023-02-24T06:58:59.904Z,25.77
2023-02-24T07:01:28.970Z,25.47
2023-02-24T07:04:07.587Z,25.37
2023-02-24T07:06:38.374Z,27.93
2023-02-24T07:09:11.637Z,24.70
2023-02-24T07:11:41.675Z,24.87
2023-02-24T07:14:09.788Z,23.40
2023-02-24T07:16:37.136Z,21.00
2023-02-24T07:19:11.344Z,19.17
2023-02-24T07:21:39.929Z,17.73
2023-02-24T07:24:13.509Z,16.37
2023-02-24T07:26:42.235Z,18.53
2023-02-24T07:29:11.672Z,19.70
2023-02-24T07:31:39.933Z,21.23
2023-02-24T07:34:07.328Z,20.27
2023-02-24T07:36:49.250Z,18.27
2023-02-24T07:39:17.571Z,17.33
2023-02-24T07:41:45.700Z,16.43
2023-02-24T07:44:13.820Z,15.70
2023-02-24T07:46:43.048Z,15.73
2023-02-24T07:49:13.541Z,15.43
2023-02-24T07:51:40.826Z,14.80
2023-02-24T07:54:08.932Z,15.53
2023-02-24T07:56:46.030Z,14.03
2023-02-24T07:59:15.844Z,14.73
2023-02-24T08:01:49.927Z,15.17
2023-02-24T08:04:24.647Z,14.70
2023-02-24T08:06:56.376Z,15.13
2023-02-24T08:10:07.076Z,15.17
2023-02-24T08:12:35.371Z,15.63
2023-02-24T08:15:17.311Z,15.57
2023-02-24T08:17:47.654Z,16.13
2023-02-24T08:20:15.289Z,14.27
2023-02-24T08:22:52.579Z,13.83
2023-02-24T08:25:35.898Z,15.60
2023-02-24T08:28:08.373Z,15.37
2023-02-24T08:30:40.448Z,15.10
2023-02-24T08:33:10.810Z,16.33
2023-02-24T08:35:44.789Z,14.80
2023-02-24T08:38:15.862Z,16.90
2023-02-24T08:40:51.943Z,16.57
2023-02-24T08:43:25.502Z,16.73
2023-02-24T08:46:01.049Z,15.67
2023-02-24T08:48:42.312Z,14.03
2023-02-24T08:51:18.039Z,14.43
2023-02-24T08:53:47.159Z,14.60
2023-02-24T08:56:24.432Z,14.37
2023-02-24T08:59:05.642Z,14.47
2023-02-24T09:01:36.300Z,16.40
2023-02-24T09:04:08.219Z,15.73
2023-02-24T09:06:46.290Z,15.70
2023-02-24T09:09:17.632Z,14.17
2023-02-24T09:11:59.126Z,14.13
2023-02-24T09:14:36.605Z,14.83
2023-02-24T09:17:11.356Z,13.63
2023-02-24T09:20:02.142Z,14.80
2023-02-24T09:22:32.949Z,13.77
2023-02-24T09:25:18.429Z,13.63
2023-02-24T09:27:56.453Z,13.47
2023-02-24T09:30:39.140Z,13.40
2023-02-24T09:33:06.545Z,13.90
2023-02-24T09:35:36.831Z,13.17
2023-02-24T09:38:07.709Z,12.60
2023-02-24T09:40:39.563Z,12.80
2023-02-24T09:43:17.892Z,12.87
2023-02-24T09:46:14.878Z,13.30
2023-02-24T09:48:55.691Z,12.97
2023-02-24T09:51:25.766Z,13.00
2023-02-24T09:53:54.923Z,12.47
2023-02-24T09:56:22.970Z,12.40
2023-02-24T09:58:58.789Z,12.20
2023-02-24T10:01:43.120Z,11.50
2023-02-24T10:04:28.135Z,11.10
2023-02-24T10:07:14.326Z,10.63
2023-02-24T10:09:53.019Z,11.03
2023-02-24T10:12:32.351Z,10.07
2023-02-24T10:15:20.038Z,10.27
2023-02-24T10:17:56.231Z,10.73
2023-02-24T10:20:40.738Z,10.43
2023-02-24T10:23:33.140Z,10.93
2023-02-24T10:26:08.178Z,10.93
2023-02-24T10:28:38.144Z,11.93
2023-02-24T10:31:25.680Z,11.93
2023-02-24T10:34:06.476Z,11.70
2023-02-24T10:36:37.998Z,11.03
2023-02-24T10:39:25.858Z,11.70
2023-02-24T10:41:58.456Z,13.27
2023-02-24T10:44:36.142Z,12.60
2023-02-24T10:47:12.619Z,11.70
2023-02-24T10:49:58.210Z,11.70
2023-02-24T10:52:37.419Z,11.67
2023-02-24T10:55:34.333Z,11.83
2023-02-24T10:58:06.663Z,11.47
2023-02-24T11:01:00.516Z,11.03
2023-02-24T11:03:41.778Z,10.50
2023-02-24T11:06:40.792Z,11.07
2023-02-24T11:09:28.112Z,10.57
2023-02-24T11:12:30.351Z,10.47
2023-02-24T11:15:25.606Z,11.70
2023-02-24T11:17:58.686Z,10.80
2023-02-24T11:20:29.461Z,10.70
2023-02-24T11:23:12.296Z,11.47
2023-02-24T11:25:41.774Z,11.00
2023-02-24T11:28:36.454Z,9.67
2023-02-24T11:31:31.742Z,10.30
2023-02-24T11:34:29.011Z,8.93
2023-02-24T11:37:14.938Z,7.80
2023-02-24T11:39:57.311Z,8.07
2023-02-24T11:42:56.284Z,8.00
2023-02-24T11:45:40.079Z,6.53
2023-02-24T11:48:19.869Z,7.73
2023-02-24T11:50:58.511Z,7.47
2023-02-24T11:53:46.848Z,6.77
2023-02-24T11:56:16.251Z,7.17
2023-02-24T11:58:57.862Z,7.97
2023-02-24T12:02:14.407Z,8.77
2023-02-24T12:04:49.450Z,7.60
2023-02-24T12:07:36.331Z,7.70
2023-02-24T12:10:16.170Z,7.77
2023-02-24T12:13:15.203Z,8.00
2023-02-24T12:16:04.520Z,9.17
2023-02-24T12:18:41.085Z,8.27
2023-02-24T12:21:20.714Z,8.77
2023-02-24T12:23:50.698Z,8.93
2023-02-24T12:26:40.082Z,8.83
2023-02-24T12:29:21.387Z,8.60
2023-02-24T12:31:54.476Z,8.97
2023-02-24T12:34:47.021Z,8.00
2023-02-24T12:37:38.692Z,8.17
2023-02-24T12:40:22.512Z,7.93
2023-02-24T12:42:49.719Z,8.33
2023-02-24T12:45:30.762Z,9.00
2023-02-24T12:48:38.773Z,8.27
2023-02-24T12:51:09.243Z,7.57
2023-02-24T12:54:01.594Z,8.20
2023-02-24T12:56:40.716Z,7.90
2023-02-24T12:59:12.519Z,7.77
2023-02-24T13:01:43.940Z,7.93
2023-02-24T13:04:34.949Z,6.40
2023-02-24T13:07:12.486Z,5.20
2023-02-24T13:10:00.402Z,5.33
2023-02-24T13:12:55.055Z,4.50
2023-02-24T13:15:27.909Z,5.07
2023-02-24T13:17:57.995Z,5.23
2023-02-24T13:20:29.819Z,4.47
2023-02-24T13:22:57.101Z,4.77
2023-02-24T13:25:33.652Z,4.43
2023-02-24T13:28:03.872Z,4.57
2023-02-24T13:30:42.485Z,4.20
2023-02-24T13:33:18.572Z,4.10
2023-02-24T13:35:52.607Z,4.27
2023-02-24T13:38:30.509Z,4.30
2023-02-24T13:41:07.309Z,5.03
2023-02-24T13:43:34.191Z,4.30
2023-02-24T13:46:04.758Z,4.10
2023-02-24T13:49:02.535Z,4.63
2023-02-24T13:51:35.563Z,3.97
2023-02-24T13:54:20.261Z,4.90
2023-02-24T13:57:05.730Z,4.57
2023-02-24T14:00:10.312Z,4.87
2023-02-24T14:02:44.104Z,4.73
2023-02-24T14:05:36.112Z,4.90
2023-02-24T14:08:04.775Z,4.27
2023-02-24T14:10:34.810Z,5.00
2023-02-24T14:13:16.661Z,4.67
2023-02-24T14:15:46.937Z,5.20
2023-02-24T14:18:24.479Z,4.70
2023-02-24T14:20:53.132Z,5.20
2023-02-24T14:23:27.621Z,4.83
2023-02-24T14:26:00.625Z,4.47
2023-02-24T14:28:32.312Z,5.37
2023-02-24T14:31:04.856Z,5.80
2023-02-24T14:33:34.868Z,5.60
2023-02-24T14:36:07.838Z,6.33
2023-02-24T14:38:40.909Z,6.70
2023-02-24T14:41:21.200Z,7.50
2023-02-24T14:43:48.572Z,6.20
2023-02-24T14:46:16.631Z,7.67
2023-02-24T14:48:45.116Z,10.57
2023-02-24T14:51:22.888Z,7.63
2023-02-24T14:53:54.065Z,8.27
2023-02-24T14:56:23.580Z,9.37
2023-02-24T14:59:09.345Z,9.13
2023-02-24T15:01:42.315Z,6.70
2023-02-24T15:04:38.053Z,6.20
2023-02-24T15:07:12.496Z,7.67
2023-02-24T15:09:44.604Z,7.70
2023-02-24T15:12:13.785Z,7.57
2023-02-24T15:14:43.665Z,7.67
2023-02-24T15:17:16.555Z,8.23
2023-02-24T15:19:46.577Z,7.93
2023-02-24T15:22:24.538Z,8.13
2023-02-24T15:24:53.958Z,6.70
2023-02-24T15:27:24.912Z,8.30
2023-02-24T15:30:09.156Z,9.10
2023-02-24T15:32:38.437Z,10.70
2023-02-24T15:35:07.761Z,9.33
2023-02-24T15:37:43.660Z,8.83
2023-02-24T15:40:20.789Z,8.10
2023-02-24T15:42:56.640Z,10.63
2023-02-24T15:45:25.331Z,13.27
2023-02-24T15:47:54.511Z,12.93
2023-02-24T15:50:21.778Z,12.43
2023-02-24T15:52:49.407Z,12.90
2023-02-24T15:55:17.725Z,13.73
2023-02-24T15:57:45.434Z,13.30
2023-02-24T16:00:16.581Z,12.70
2023-02-24T16:02:43.885Z,10.47
2023-02-24T16:05:14.217Z,12.13
2023-02-24T16:07:42.818Z,12.10
2023-02-24T16:10:34.012Z,12.33
2023-02-24T16:13:02.268Z,11.73
2023-02-24T16:15:33.276Z,11.83
2023-02-24T16:18:02.825Z,11.63
2023-02-24T16:20:37.336Z,9.70
2023-02-24T16:23:05.446Z,10.17
2023-02-24T16:25:38.913Z,9.63
2023-02-24T16:28:06.224Z,9.17
2023-02-24T16:30:35.619Z,8.77
2023-02-24T16:33:03.167Z,9.00
2023-02-24T16:35:30.511Z,9.23
2023-02-24T16:37:57.758Z,9.60
2023-02-24T16:40:30.218Z,10.97
2023-02-24T16:42:57.929Z,11.63
2023-02-24T16:45:29.115Z,12.27
2023-02-24T16:48:00.553Z,11.10
2023-02-24T16:50:33.639Z,10.67
2023-02-24T16:53:01.135Z,11.07
2023-02-24T16:55:28.631Z,12.60
2023-02-24T16:57:55.893Z,13.60
2023-02-24T17:00:24.392Z,13.53
2023-02-24T17:02:52.911Z,11.60
2023-02-24T17:05:20.223Z,12.67
2023-02-24T17:07:48.809Z,11.30
2023-02-24T17:10:16.702Z,11.30
2023-02-24T17:12:44.154Z,10.70
2023-02-24T17:15:15.374Z,10.77
2023-02-24T17:17:43.086Z,12.17
2023-02-24T17:20:13.593Z,13.07
2023-02-24T17:22:40.957Z,13.70
2023-02-24T17:25:08.640Z,20.70
2023-02-24T17:27:35.882Z,33.70
2023-02-24T17:30:03.145Z,20.33
2023-02-24T17:32:30.490Z,15.17
2023-02-24T17:34:57.769Z,12.37
2023-02-24T17:37:25.004Z,10.80
2023-02-24T17:39:52.304Z,10.97
2023-02-24T17:42:19.553Z,12.13
2023-02-24T17:44:47.579Z,11.03
2023-02-24T17:47:14.880Z,12.07
2023-02-24T17:49:42.185Z,12.67
2023-02-24T17:52:09.667Z,11.77
2023-02-24T17:54:37.136Z,12.30
2023-02-24T17:57:04.511Z,11.30
2023-02-24T17:59:31.786Z,11.10
2023-02-24T18:02:00.226Z,10.10
2023-02-24T18:04:27.563Z,9.33
2023-02-24T18:06:54.884Z,8.50
2023-02-24T18:09:23.846Z,6.80
2023-02-24T18:11:51.237Z,6.90
2023-02-24T18:14:18.467Z,6.77
2023-02-24T18:16:45.420Z,7.33
2023-02-24T18:19:12.441Z,11.40
2023-02-24T18:21:39.419Z,13.97
2023-02-24T18:24:06.724Z,12.27
2023-02-24T18:26:33.596Z,12.00
2023-02-24T18:29:01.665Z,11.83
2023-02-24T18:31:29.667Z,10.13
2023-02-24T18:33:57.411Z,11.10
2023-02-24T18:36:24.980Z,11.10
2023-02-24T18:38:52.311Z,10.87
2023-02-24T18:41:21.843Z,11.70
2023-02-24T18:43:50.210Z,11.47
2023-02-24T18:46:17.596Z,11.37
2023-02-24T18:48:46.049Z,11.27
2023-02-24T18:51:21.293Z,11.33
2023-02-24T18:53:51.378Z,11.10
2023-02-24T18:56:25.292Z,12.03
2023-02-24T18:58:55.240Z,12.33
2023-02-24T19:01:29.170Z,12.10
2023-02-24T19:03:57.137Z,11.03
2023-02-24T19:06:26.957Z,11.03
2023-02-24T19:09:00.171Z,11.87
2023-02-24T19:11:27.570Z,10.53
2023-02-24T19:13:55.226Z,10.40
2023-02-24T19:16:23.058Z,10.60
2023-02-24T19:18:51.766Z,16.93
2023-02-24T19:21:19.111Z,12.27
2023-02-24T19:23:46.676Z,15.90
2023-02-24T19:26:19.020Z,13.93
2023-02-24T19:28:46.881Z,16.77
2023-02-24T19:31:16.002Z,15.60
2023-02-24T19:33:43.378Z,14.83
2023-02-24T19:36:11.552Z,12.60
2023-02-24T19:38:41.358Z,13.10
2023-02-24T19:41:08.861Z,11.63
2023-02-24T19:43:36.583Z,10.37
2023-02-24T19:46:06.292Z,10.47
2023-02-24T19:48:34.392Z,10.47
2023-02-24T19:51:15.686Z,9.97
2023-02-24T19:53:42.960Z,8.87
2023-02-24T19:56:10.767Z,8.90
2023-02-24T19:58:38.360Z,7.43
2023-02-24T20:01:13.392Z,7.33
2023-02-24T20:03:42.369Z,6.90
2023-02-24T20:06:25.798Z,6.37
2023-02-24T20:08:53.527Z,5.70
2023-02-24T20:11:21.269Z,5.63
2023-02-24T20:13:48.843Z,6.20
2023-02-24T20:16:19.889Z,6.10
2023-02-24T20:18:47.399Z,6.60
2023-02-24T20:21:14.764Z,6.70
2023-02-24T20:23:42.456Z,6.37
2023-02-24T20:26:16.812Z,6.43
2023-02-24T20:28:45.067Z,6.80
2023-02-24T20:31:15.566Z,6.07
2023-02-24T20:33:43.821Z,5.37
2023-02-24T20:36:22.506Z,6.33
2023-02-24T20:38:51.079Z,6.00
2023-02-24T20:41:19.857Z,5.83
2023-02-24T20:43:47.739Z,6.47
2023-02-24T20:46:18.197Z,6.43
2023-02-24T20:48:46.324Z,6.37
2023-02-24T20:51:13.810Z,6.90
2023-02-24T20:53:55.891Z,7.17
2023-02-24T20:56:25.180Z,7.83
2023-02-24T20:58:54.283Z,9.77
2023-02-24T21:01:21.782Z,10.63
2023-02-24T21:03:49.239Z,10.17
2023-02-24T21:06:17.872Z,9.90
2023-02-24T21:08:46.607Z,9.23
2023-02-24T21:11:14.486Z,8.60
2023-02-24T21:13:46.669Z,8.23
2023-02-24T21:16:15.805Z,8.77
2023-02-24T21:18:45.409Z,8.17
2023-02-24T21:21:12.915Z,8.97
2023-02-24T21:23:41.921Z,8.70
2023-02-24T21:26:09.986Z,8.70
2023-02-24T21:28:37.935Z,8.10
2023-02-24T21:31:13.917Z,8.03
2023-02-24T21:33:41.385Z,8.10
2023-02-24T21:36:13.603Z,8.23
2023-02-24T21:38:41.397Z,8.73
2023-02-24T21:41:13.177Z,8.57
2023-02-24T21:43:40.461Z,10.53
2023-02-24T21:46:09.249Z,11.87
2023-02-24T21:48:37.374Z,12.13
2023-02-24T21:51:07.130Z,12.53
2023-02-24T21:53:35.987Z,12.43
2023-02-24T21:56:25.424Z,11.83
2023-02-24T21:58:57.190Z,11.83
2023-02-24T22:01:44.667Z,10.20
2023-02-24T22:04:19.844Z,10.90
2023-02-24T22:06:47.161Z,11.67
2023-02-24T22:09:20.579Z,11.00
2023-02-24T22:11:49.410Z,11.17
2023-02-24T22:14:17.051Z,10.93
2023-02-24T22:16:44.341Z,11.43
2023-02-24T22:19:12.153Z,11.07
2023-02-24T22:21:42.438Z,10.70
2023-02-24T22:24:13.480Z,10.87
2023-02-24T22:26:41.088Z,11.53
2023-02-24T22:29:08.587Z,10.97
2023-02-24T22:31:39.730Z,11.30
2023-02-24T22:34:08.913Z,11.43
2023-02-24T22:36:36.891Z,11.53
2023-02-24T22:39:05.510Z,12.10
2023-02-24T22:41:34.883Z,11.47
2023-02-24T22:44:04.165Z,11.67
2023-02-24T22:46:34.178Z,11.73
2023-02-24T22:49:01.503Z,11.67
2023-02-24T22:51:29.299Z,12.83
2023-02-24T22:53:56.969Z,13.13
2023-02-24T22:56:26.747Z,13.53
2023-02-24T22:58:53.983Z,12.53
2023-02-24T23:01:27.277Z,14.20
2023-02-24T23:03:54.808Z,13.60
2023-02-24T23:06:23.806Z,13.30
2023-02-24T23:08:51.906Z,12.20
2023-02-24T23:11:33.257Z,11.87
2023-02-24T23:14:04.105Z,10.33
2023-02-24T23:16:33.604Z,10.27
2023-02-24T23:19:06.062Z,9.00
2023-02-24T23:21:39.517Z,8.60
2023-02-24T23:24:08.261Z,7.43
2023-02-24T23:26:35.566Z,6.83
2023-02-24T23:29:02.891Z,6.10
2023-02-24T23:31:30.446Z,6.20
2023-02-24T23:33:58.222Z,5.13
2023-02-24T23:36:26.264Z,5.50
2023-02-24T23:38:53.632Z,5.63
2023-02-24T23:41:20.933Z,5.10
2023-02-24T23:43:48.687Z,4.60
2023-02-24T23:46:16.022Z,4.87
2023-02-24T23:48:43.469Z,5.00
2023-02-24T23:51:13.695Z,6.20
2023-02-24T23:53:42.508Z,6.10
2023-02-24T23:56:14.755Z,5.50
2023-02-24T23:58:42.108Z,5.30
